Time;durP1;ratioP1;P1;durP2;ratioP2;P2;SDS_P1;SDS_P2;PMS_P1;PMS_P2;Temp;Humidity;BMP_temperature;BMP_pressure;BME280_temperature;BME280_humidity;BME280_pressure;Samples;Min_cycle;Max_cycle;Signal;HPM_P1;HPM_P2
2023/08/11 00:01:33;;;;;;;;;7.00;6.00;;;;;23.93;54.66;101447.13;5037796;28;58841;-68
2023/08/11 00:03:58;;;;;;;;;7.33;7.00;;;;;23.89;54.72;101449.44;5020515;28;45275;-68
2023/08/11 00:06:25;;;;;;;;;7.67;6.00;;;;;23.91;55.07;101450.06;5038646;28;45442;-69
2023/08/11 00:08:52;;;;;;;;;6.67;6.67;;;;;23.90;55.31;101447.56;5038177;28;45677;-69
2023/08/11 00:11:18;;;;;;;;;7.67;5.67;;;;;23.87;55.29;101445.28;5037254;28;45375;-69
2023/08/11 00:13:44;;;;;;;;;6.67;6.33;;;;;23.83;55.20;101446.75;5038440;28;45484;-69
2023/08/11 00:16:10;;;;;;;;;8.67;6.33;;;;;23.82;55.34;101443.19;5037972;28;45487;-70
2023/08/11 00:18:35;;;;;;;;;5.67;5.67;;;;;23.75;55.33;101436.94;5038075;28;45954;-69
2023/08/11 00:21:02;;;;;;;;;7.00;7.00;;;;;23.77;55.84;101434.03;5037900;28;45632;-69
2023/08/11 00:23:27;;;;;;;;;6.50;6.50;;;;;23.45;55.71;101387.75;5038037;28;45271;-68
2023/08/11 00:25:53;;;;;;;;;6.25;6.25;;;;;23.75;55.20;101442.38;5020365;28;45508;-71
2023/08/11 00:28:18;;;;;;;;;8.67;5.67;;;;;23.75;55.33;101441.56;5037861;28;45851;-69
2023/08/11 00:30:43;;;;;;;;;10.00;10.00;;;;;23.69;55.61;101443.25;5019695;28;45304;-69
2023/08/11 00:33:10;;;;;;;;;7.33;6.33;;;;;23.73;55.58;101441.75;5037220;28;61676;-68
2023/08/11 00:35:35;;;;;;;;;6.00;6.00;;;;;23.69;55.66;101445.13;5038364;28;45337;-69
2023/08/11 00:38:01;;;;;;;;;6.67;6.67;;;;;23.58;55.86;101428.44;5037509;28;47706;-69
2023/08/11 00:40:26;;;;;;;;;6.00;6.00;;;;;23.63;55.68;101439.50;5019658;28;46047;-68
2023/08/11 00:42:52;;;;;;;;;6.33;6.33;;;;;23.55;56.01;101430.72;5037929;28;45251;-69
2023/08/11 00:45:18;;;;;;;;;7.33;7.00;;;;;23.22;56.26;101369.19;5037825;28;45304;-69
2023/08/11 00:47:45;;;;;;;;;7.00;7.00;;;;;23.52;56.19;101417.56;5037622;28;45955;-69
2023/08/11 00:50:12;;;;;;;;;9.00;7.67;;;;;23.58;55.84;101433.03;5037348;28;45435;-70
2023/08/11 00:52:38;;;;;;;;;9.67;8.00;;;;;23.58;56.06;101427.59;5019462;28;45475;-69
2023/08/11 00:55:07;;;;;;;;;8.00;7.00;;;;;23.55;55.90;101419.84;5037634;28;45233;-69
2023/08/11 00:57:33;;;;;;;;;5.00;5.00;;;;;23.54;56.33;101426.34;5037457;28;45777;-69
2023/08/11 01:00:01;;;;;;;;;9.00;7.00;;;;;23.47;56.05;101420.09;5037077;28;45521;-68
2023/08/11 01:02:26;;;;;;;;;9.00;8.33;;;;;23.51;56.33;101430.31;5037719;28;45501;-68
2023/08/11 01:04:52;;;;;;;;;8.00;8.00;;;;;23.51;56.02;101433.03;5037583;28;45421;-68
2023/08/11 01:07:27;;;;;;;;;9.67;7.67;;;;;23.44;56.07;101420.53;5019310;28;46584;-70
2023/08/11 01:10:08;;;;;;;;;9.67;8.00;;;;;23.46;56.29;101423.88;5037479;28;45501;-69
2023/08/11 01:12:51;;;;;;;;;8.33;8.33;;;;;23.45;56.26;101428.47;5019564;28;45536;-69
2023/08/11 01:15:29;;;;;;;;;9.50;9.50;;;;;23.44;56.20;101426.78;5036970;28;45431;-69
2023/08/11 01:17:55;;;;;;;;;8.67;8.67;;;;;23.41;56.43;101438.03;5037208;28;46648;-70
2023/08/11 01:20:23;;;;;;;;;8.00;8.00;;;;;23.41;56.55;101435.31;5019281;28;45337;-69
2023/08/11 01:22:53;;;;;;;;;8.33;8.33;;;;;23.34;56.57;101429.91;5036103;28;45510;-69
2023/08/11 01:25:19;;;;;;;;;9.00;7.00;;;;;23.41;56.43;101445.34;5037396;28;45405;-69
2023/08/11 01:27:52;;;;;;;;;8.00;8.00;;;;;23.36;56.78;101441.41;5036992;28;45775;-69
2023/08/11 01:30:17;;;;;;;;;8.00;8.00;;;;;23.38;56.44;101442.00;5036685;28;45322;-69
2023/08/11 01:32:44;;;;;;;;;8.00;8.00;;;;;23.37;56.97;101453.09;5037326;28;45284;-69
2023/08/11 01:35:10;;;;;;;;;8.25;8.25;;;;;23.01;57.07;101385.72;5037149;28;45573;-69
2023/08/11 01:37:35;;;;;;;;;7.33;6.00;;;;;23.34;56.82;101451.63;5036861;28;46006;-69
2023/08/11 01:40:01;;;;;;;;;10.00;9.33;;;;;23.35;56.63;101453.28;5036955;28;45336;-69
2023/08/11 01:42:26;;;;;;;;;7.67;7.33;;;;;23.24;57.17;101442.28;5037242;28;45396;-69
2023/08/11 01:44:52;;;;;;;;;8.00;7.33;;;;;23.31;57.20;101462.91;5036890;28;45269;-69
2023/08/11 01:47:19;;;;;;;;;8.00;8.00;;;;;23.28;57.47;101466.06;5036736;28;46730;-69
2023/08/11 01:49:46;;;;;;;;;8.67;7.00;;;;;23.02;57.67;101422.66;5036756;28;45279;-70
2023/08/11 01:52:12;;;;;;;;;9.00;9.00;;;;;23.22;57.52;101464.16;5018783;28;45311;-69
2023/08/11 01:54:38;;;;;;;;;8.67;8.67;;;;;23.20;57.93;101468.97;5037081;28;45272;-69
2023/08/11 01:57:05;;;;;;;;;11.00;8.00;;;;;23.19;58.22;101464.56;5018532;28;48629;-70
2023/08/11 01:59:30;;;;;;;;;10.33;9.00;;;;;23.15;57.84;101466.03;5036480;28;45426;-69
2023/08/11 02:01:56;;;;;;;;;10.00;10.00;;;;;23.15;58.22;101479.59;5037001;28;45317;-69
2023/08/11 02:04:22;;;;;;;;;9.33;9.33;;;;;23.09;58.22;101461.47;5036783;28;45585;-69
2023/08/11 02:06:48;;;;;;;;;9.00;8.67;;;;;23.11;58.53;101467.50;5036598;28;46379;-70
2023/08/11 02:09:13;;;;;;;;;11.33;11.33;;;;;23.05;58.36;101455.63;5018297;28;45401;-69
2023/08/11 02:11:39;;;;;;;;;9.00;7.67;;;;;23.10;58.40;101462.31;5036673;28;45204;-67
2023/08/11 02:14:05;;;;;;;;;10.67;9.00;;;;;23.12;58.68;101471.06;5036427;28;45505;-68
2023/08/11 02:16:31;;;;;;;;;10.33;9.33;;;;;23.03;59.04;101444.16;5036564;28;46705;-67
2023/08/11 02:18:56;;;;;;;;;7.00;7.00;;;;;22.76;58.39;101402.59;5036393;28;45169;-68
2023/08/11 02:21:21;;;;;;;;;7.33;7.33;;;;;22.97;58.15;101431.41;5036407;28;45493;-69
2023/08/11 02:23:47;;;;;;;;;8.00;7.00;;;;;23.01;58.21;101448.09;5036659;28;45205;-69
2023/08/11 02:26:13;;;;;;;;;7.00;7.00;;;;;23.08;57.88;101454.38;5035754;28;64490;-68
2023/08/11 02:28:38;;;;;;;;;7.67;7.67;;;;;23.07;58.45;101460.84;5036417;28;45236;-68
2023/08/11 02:31:04;;;;;;;;;8.67;7.00;;;;;23.02;58.26;101455.19;5036288;28;45346;-69
2023/08/11 02:33:29;;;;;;;;;7.00;7.00;;;;;23.03;58.00;101456.88;5037218;28;45340;-69
2023/08/11 02:35:54;;;;;;;;;7.00;7.00;;;;;22.68;58.22;101410.13;5021039;28;59777;-69
2023/08/11 02:38:19;;;;;;;;;2.00;2.00;;;;;22.92;58.57;101444.78;5039575;28;45339;-69
2023/08/11 02:40:45;;;;;;;;;10.67;9.00;;;;;22.96;58.86;101461.44;5039908;28;45465;-69
2023/08/11 02:43:11;;;;;;;;;6.00;6.00;;;;;22.93;58.51;101461.88;5039896;28;45410;-69
2023/08/11 02:45:36;;;;;;;;;8.67;8.00;;;;;22.80;58.76;101440.97;5039302;28;45736;-70
2023/08/11 02:48:01;;;;;;;;;7.00;7.00;;;;;22.90;58.85;101451.44;5039609;28;45512;-69
2023/08/11 02:50:27;;;;;;;;;12.00;9.00;;;;;22.82;59.26;101451.63;5039767;28;45307;-70
2023/08/11 02:52:53;;;;;;;;;9.33;7.67;;;;;22.92;59.10;101465.63;5039818;28;45509;-69
2023/08/11 02:55:19;;;;;;;;;9.33;9.00;;;;;22.91;58.90;101469.38;5039322;28;45887;-69
2023/08/11 02:57:45;;;;;;;;;6.00;6.00;;;;;22.68;58.83;101424.50;5039343;28;45369;-69
2023/08/11 03:00:14;;;;;;;;;5.67;5.67;;;;;22.87;58.91;101458.13;5039337;28;45433;-68
2023/08/11 03:02:47;;;;;;;;;10.33;9.00;;;;;22.93;59.44;101467.31;5021531;28;45505;-68
2023/08/11 03:05:15;;;;;;;;;7.00;7.00;;;;;22.64;59.41;101417.00;5039133;28;46585;-69
2023/08/11 03:07:41;;;;;;;;;8.33;8.33;;;;;22.86;59.64;101455.63;5039287;28;45304;-69
2023/08/11 03:10:09;;;;;;;;;9.00;7.00;;;;;22.91;59.10;101463.97;5039370;28;45626;-69
2023/08/11 03:12:35;;;;;;;;;8.33;8.00;;;;;22.83;59.56;101456.03;5039418;28;45435;-69
2023/08/11 03:15:02;;;;;;;;;9.00;8.00;;;;;22.81;59.70;101452.66;5020573;28;47547;-68
2023/08/11 03:17:28;;;;;;;;;12.67;10.00;;;;;22.87;59.82;101473.56;5020894;28;45455;-69
2023/08/11 03:19:53;;;;;;;;;10.33;8.33;;;;;22.83;59.87;101461.47;5020916;28;45557;-69
2023/08/11 03:22:19;;;;;;;;;10.67;10.67;;;;;22.86;60.24;101469.19;5039403;28;45247;-69
2023/08/11 03:24:45;;;;;;;;;9.67;9.00;;;;;22.79;60.01;101458.28;5020994;28;47207;-69
2023/08/11 03:27:12;;;;;;;;;8.00;7.00;;;;;22.71;60.01;101453.06;5038989;28;45421;-69
2023/08/11 03:29:37;;;;;;;;;8.33;8.33;;;;;22.72;59.93;101452.84;5038878;28;45509;-68
2023/08/11 03:32:03;;;;;;;;;9.00;7.67;;;;;22.83;59.66;101475.84;5039162;28;45287;-69
2023/08/11 03:34:28;;;;;;;;;11.33;9.33;;;;;22.83;60.00;101475.03;5038724;28;45797;-69
2023/08/11 03:36:53;;;;;;;;;7.67;7.67;;;;;22.56;59.59;101434.28;5038791;28;45522;-69
2023/08/11 03:39:19;;;;;;;;;6.00;6.00;;;;;22.82;59.89;101484.16;5038200;28;56841;-69
2023/08/11 03:41:44;;;;;;;;;9.00;8.75;;;;;22.81;60.08;101479.75;5038505;28;49567;-69
2023/08/11 03:44:09;;;;;;;;;11.33;9.67;;;;;22.78;60.27;101470.16;5038012;28;56807;-70
2023/08/11 03:46:35;;;;;;;;;9.00;7.67;;;;;22.71;60.54;101459.31;5037609;28;48488;-70
2023/08/11 03:49:00;;;;;;;;;8.00;7.00;;;;;22.76;60.09;101466.81;5038762;28;45454;-69
2023/08/11 03:51:26;;;;;;;;;9.00;9.00;;;;;22.70;60.51;101452.22;5038377;28;50230;-69
2023/08/11 03:53:51;;;;;;;;;9.00;9.00;;;;;22.69;60.37;101453.28;5038637;28;46663;-69
2023/08/11 03:56:18;;;;;;;;;9.33;9.33;;;;;22.50;60.92;101424.25;5038616;28;45252;-69
2023/08/11 03:58:43;;;;;;;;;9.00;9.00;;;;;22.57;60.89;101437.81;5038403;28;45232;-69
2023/08/11 04:01:08;;;;;;;;;9.33;9.33;;;;;22.59;61.47;101444.69;5038370;28;45518;-69
2023/08/11 04:03:34;;;;;;;;;14.33;12.33;;;;;22.57;61.17;101456.78;5020233;28;47912;-69
2023/08/11 04:06:00;;;;;;;;;12.33;11.00;;;;;22.53;61.48;101450.94;5037724;28;59402;-70
2023/08/11 04:08:27;;;;;;;;;14.00;13.00;;;;;22.51;61.73;101452.19;5038325;28;45442;-70
2023/08/11 04:10:55;;;;;;;;;15.33;14.00;;;;;22.46;61.58;101444.69;5038391;28;45564;-69
2023/08/11 04:13:20;;;;;;;;;11.67;10.00;;;;;22.45;61.75;101448.44;5037709;28;46739;-67
2023/08/11 04:15:49;;;;;;;;;8.33;7.33;;;;;22.38;61.89;101448.41;5037457;28;45369;-70
2023/08/11 04:18:15;;;;;;;;;13.33;12.00;;;;;22.37;61.96;101441.31;5038040;28;45494;-68
2023/08/11 04:20:40;;;;;;;;;16.00;14.67;;;;;22.26;62.53;101430.25;5038326;28;45514;-68
2023/08/11 04:23:06;;;;;;;;;14.67;13.67;;;;;22.28;62.31;101442.56;5037978;28;45816;-68
2023/08/11 04:25:32;;;;;;;;;14.67;14.33;;;;;21.94;62.69;101381.16;5037953;28;45391;-69
2023/08/11 04:27:59;;;;;;;;;14.00;12.33;;;;;22.29;62.30;101440.69;5037898;28;45328;-70
2023/08/11 04:30:25;;;;;;;;;10.67;9.00;;;;;22.29;62.44;101435.25;5037866;28;45241;-69
2023/08/11 04:32:51;;;;;;;;;11.00;11.00;;;;;22.30;62.30;101440.47;5037454;28;46772;-69
2023/08/11 04:35:17;;;;;;;;;16.67;14.67;;;;;22.00;62.72;101396.59;5037846;28;45521;-69
2023/08/11 04:37:43;;;;;;;;;15.33;14.67;;;;;22.15;62.67;101421.66;5019880;28;45399;-69
2023/08/11 04:40:13;;;;;;;;;11.00;11.00;;;;;22.24;62.49;101441.31;5038029;28;45223;-69
2023/08/11 04:42:42;;;;;;;;;14.00;11.00;;;;;22.12;62.58;101430.22;5037458;28;47450;-69
2023/08/11 04:45:12;;;;;;;;;8.33;5.33;;;;;22.26;62.86;101446.50;5037311;28;45470;-69
2023/08/11 04:47:37;;;;;;;;;15.00;11.33;;;;;22.25;62.97;101450.25;5037639;28;45458;-69
2023/08/11 04:50:03;;;;;;;;;13.00;12.33;;;;;22.10;62.92;101423.34;5037939;28;45236;-69
2023/08/11 04:52:28;;;;;;;;;15.67;15.67;;;;;22.27;62.83;101445.47;5037674;28;45451;-69
2023/08/11 04:54:53;;;;;;;;;12.33;12.33;;;;;22.24;62.55;101435.06;5037255;28;49541;-69
2023/08/11 04:57:19;;;;;;;;;15.33;12.33;;;;;22.32;63.05;101451.94;5037301;28;45458;-69
2023/08/11 04:59:45;;;;;;;;;15.67;13.33;;;;;22.23;62.88;101427.97;5037442;28;45616;-69
2023/08/11 05:02:11;;;;;;;;;9.00;9.00;;;;;22.33;62.66;101448.19;5037372;28;46449;-69
2023/08/11 05:04:36;;;;;;;;;9.00;9.00;;;;;22.33;62.84;101444.66;5037149;28;45344;-68
2023/08/11 05:07:02;;;;;;;;;12.33;12.33;;;;;22.16;62.63;101406.25;5037392;28;45638;-68
2023/08/11 05:09:27;;;;;;;;;11.33;11.33;;;;;22.38;62.89;101444.88;5037572;28;45265;-68
2023/08/11 05:11:53;;;;;;;;;13.00;11.00;;;;;21.97;62.59;101383.47;5037119;28;45640;-69
2023/08/11 05:14:18;;;;;;;;;11.00;11.00;;;;;22.39;63.24;101449.25;5036652;28;45247;-69
2023/08/11 05:16:44;;;;;;;;;15.00;14.00;;;;;22.36;63.18;101438.81;5037371;28;45502;-67
2023/08/11 05:19:10;;;;;;;;;10.00;10.00;;;;;22.43;62.76;101439.69;5037494;28;45334;-68
2023/08/11 05:21:37;;;;;;;;;13.00;9.67;;;;;22.42;62.91;101443.41;5036882;28;45461;-69
2023/08/11 05:24:03;;;;;;;;;14.00;14.00;;;;;22.41;62.73;101436.31;5037006;28;45431;-70
2023/08/11 05:26:28;;;;;;;;;11.67;10.00;;;;;22.49;63.06;101448.88;5036978;28;45265;-69
2023/08/11 05:28:54;;;;;;;;;13.00;11.67;;;;;22.49;62.48;101441.56;5036950;28;45292;-68
2023/08/11 05:31:19;;;;;;;;;11.67;9.33;;;;;22.50;62.49;101440.53;5036998;28;46486;-69
2023/08/11 05:33:44;;;;;;;;;11.67;11.67;;;;;22.57;62.43;101449.50;5036916;28;45370;-69
2023/08/11 05:36:10;;;;;;;;;7.33;7.00;;;;;22.56;62.47;101445.13;5036991;28;45272;-69
2023/08/11 05:38:35;;;;;;;;;13.33;12.00;;;;;22.49;62.26;101427.19;5037030;28;45206;-69
2023/08/11 05:41:00;;;;;;;;;10.33;10.33;;;;;22.64;62.59;101452.22;5036598;28;47751;-68
2023/08/11 05:43:26;;;;;;;;;10.00;10.00;;;;;22.54;62.56;101425.50;5018807;28;46445;-69
2023/08/11 05:45:51;;;;;;;;;12.00;10.67;;;;;22.70;62.11;101457.66;5036669;28;45319;-67
2023/08/11 05:48:16;;;;;;;;;11.67;11.67;;;;;22.49;61.89;101414.47;5036979;28;45284;-69
2023/08/11 05:50:50;;;;;;;;;12.67;12.00;;;;;22.61;62.62;101436.34;5036692;28;46337;-69
2023/08/11 05:53:15;;;;;;;;;10.33;10.33;;;;;22.81;62.30;101460.78;5036504;28;45499;-69
2023/08/11 05:55:41;;;;;;;;;11.67;11.67;;;;;22.74;62.20;101453.47;5036799;28;45325;-69
2023/08/11 05:58:06;;;;;;;;;13.67;10.00;;;;;22.87;62.27;101462.72;5037031;28;45548;-69
2023/08/11 06:00:32;;;;;;;;;10.33;10.33;;;;;21.98;61.83;101314.72;5035994;28;46470;-69
2023/08/11 06:02:57;;;;;;;;;14.33;11.33;;;;;22.92;62.06;101457.50;5036641;28;45427;-69
2023/08/11 06:05:23;;;;;;;;;14.33;12.33;;;;;22.96;61.75;101456.88;5035832;28;63894;-69
2023/08/11 06:07:49;;;;;;;;;12.67;10.67;;;;;22.96;61.13;101467.72;5036776;28;45378;-69
2023/08/11 06:10:14;;;;;;;;;15.00;12.67;;;;;23.07;61.34;101466.28;5039198;28;45404;-68
2023/08/11 06:12:39;;;;;;;;;10.00;10.00;;;;;23.13;61.55;101476.28;5021917;28;45443;-69
2023/08/11 06:15:06;;;;;;;;;13.33;11.33;;;;;22.98;61.06;101437.66;5039656;28;45510;-69
2023/08/11 06:17:31;;;;;;;;;12.33;9.00;;;;;22.96;60.87;101424.31;5040229;28;45525;-70
2023/08/11 06:19:57;;;;;;;;;10.00;10.00;;;;;23.26;61.24;101461.88;5039407;28;45376;-69
2023/08/11 06:22:23;;;;;;;;;10.33;8.00;;;;;23.43;61.16;101467.72;5021737;28;46032;-68
2023/08/11 06:24:48;;;;;;;;;7.00;7.00;;;;;23.65;60.59;101461.84;5040044;28;45435;-70
2023/08/11 06:27:14;;;;;;;;;9.00;9.00;;;;;24.16;59.38;101465.63;5039881;28;45272;-69
2023/08/11 06:29:39;;;;;;;;;8.00;7.00;;;;;24.72;57.66;101467.63;5039548;28;46880;-69
2023/08/11 06:32:05;;;;;;;;;9.00;8.00;;;;;24.79;56.08;101393.09;5039762;28;45252;-70
2023/08/11 06:34:30;;;;;;;;;8.67;8.67;;;;;25.65;55.07;101465.81;5021993;28;45221;-69
2023/08/11 06:36:55;;;;;;;;;7.75;7.75;;;;;25.96;54.58;101461.28;5039744;28;45343;-68
2023/08/11 06:39:21;;;;;;;;;10.00;10.00;;;;;26.29;53.68;101472.59;5039012;28;64868;-69
2023/08/11 06:41:46;;;;;;;;;9.33;8.00;;;;;26.75;52.38;101473.84;5039621;28;45461;-69
2023/08/11 06:44:11;;;;;;;;;12.00;11.00;;;;;27.29;51.44;101471.94;5038609;28;52877;-69
2023/08/11 06:46:36;;;;;;;;;9.33;9.33;;;;;27.77;50.40;101459.94;5039664;28;45458;-69
2023/08/11 06:49:02;;;;;;;;;8.00;8.00;;;;;28.34;48.96;101474.53;5039176;28;49384;-67
2023/08/11 06:51:28;;;;;;;;;10.33;10.33;;;;;28.79;47.77;101474.53;5039281;28;45191;-69
2023/08/11 06:53:53;;;;;;;;;8.00;8.00;;;;;29.15;46.86;101456.00;5021323;28;45400;-69
2023/08/11 06:56:18;;;;;;;;;9.00;7.67;;;;;29.62;45.86;101466.56;5039667;28;45182;-69
2023/08/11 06:58:44;;;;;;;;;8.00;8.00;;;;;30.21;44.98;101477.75;5038786;28;45504;-69
2023/08/11 07:01:09;;;;;;;;;9.33;8.33;;;;;30.42;43.86;101479.63;5038964;28;45447;-69
2023/08/11 07:03:34;;;;;;;;;8.00;8.00;;;;;30.75;43.14;101480.56;5039555;28;45138;-69
2023/08/11 07:06:01;;;;;;;;;8.00;6.67;;;;;30.95;42.54;101479.91;5039183;28;45538;-69
2023/08/11 07:08:28;;;;;;;;;9.33;8.33;;;;;31.17;42.51;101480.66;5038914;28;47274;-68
2023/08/11 07:10:54;;;;;;;;;7.67;7.67;;;;;31.48;42.41;101484.44;5039029;28;45473;-69
2023/08/11 07:13:19;;;;;;;;;10.67;9.00;;;;;31.70;41.40;101476.88;5039163;28;45338;-69
2023/08/11 07:15:44;;;;;;;;;7.00;6.00;;;;;32.10;41.00;101488.34;5038880;28;45325;-68
2023/08/11 07:18:10;;;;;;;;;7.67;7.00;;;;;32.52;40.79;101479.97;5038713;28;45672;-68
2023/08/11 07:20:45;;;;;;;;;7.00;7.00;;;;;32.56;39.94;101439.78;5037616;28;45253;-69
2023/08/11 07:23:10;;;;;;;;;8.33;8.00;;;;;33.26;39.45;101505.09;5038924;28;45277;-69
2023/08/11 07:25:36;;;;;;;;;5.67;5.67;;;;;33.68;38.66;101500.34;5038691;28;45475;-69
2023/08/11 07:28:02;;;;;;;;;6.33;6.33;;;;;34.11;37.55;101512.63;5038675;28;45779;-68
2023/08/11 07:30:30;;;;;;;;;6.33;6.33;;;;;34.58;37.66;101530.63;5038584;28;45276;-69
2023/08/11 07:32:55;;;;;;;;;7.67;7.67;;;;;35.08;36.18;101528.63;5020699;28;45548;-69
2023/08/11 07:35:21;;;;;;;;;7.00;7.00;;;;;35.00;36.05;101528.13;5038525;28;45516;-69
2023/08/11 07:37:46;;;;;;;;;6.67;6.67;;;;;35.02;36.21;101522.31;5038416;28;47661;-69
2023/08/11 07:40:12;;;;;;;;;7.67;7.33;;;;;34.89;35.31;101531.28;5037991;28;58754;-69
2023/08/11 07:42:37;;;;;;;;;8.33;7.33;;;;;34.92;35.54;101523.22;5038651;28;45290;-69
2023/08/11 07:45:03;;;;;;;;;10.67;7.67;;;;;35.07;35.55;101527.81;5026597;28;45564;-69
2023/08/11 07:47:29;;;;;;;;;11.33;10.67;;;;;35.10;35.60;101526.41;5018272;28;45582;-69
2023/08/11 07:49:54;;;;;;;;;14.00;12.00;;;;;35.32;35.47;101538.63;5018103;28;45545;-69
2023/08/11 07:52:19;;;;;;;;;11.00;8.00;;;;;35.36;34.76;101531.44;5018160;28;45443;-69
2023/08/11 07:54:44;;;;;;;;;8.33;8.33;;;;;35.39;35.39;101529.19;5018109;28;45485;-70
2023/08/11 07:57:10;;;;;;;;;12.00;11.00;;;;;35.47;34.24;101539.66;5017646;28;46753;-69
2023/08/11 07:59:36;;;;;;;;;9.67;7.67;;;;;34.95;35.46;101480.38;5017811;28;45178;-70
2023/08/11 08:02:01;;;;;;;;;6.67;6.67;;;;;35.14;35.00;101539.34;5018256;28;45245;-70
2023/08/11 08:04:26;;;;;;;;;6.00;6.00;;;;;35.20;35.94;101546.47;5018360;28;45233;-69
2023/08/11 08:06:52;;;;;;;;;11.00;9.00;;;;;35.34;34.60;101528.13;5016999;28;64440;-69
2023/08/11 08:09:18;;;;;;;;;7.67;7.67;;;;;35.56;35.00;101535.13;5017953;28;45378;-69
2023/08/11 08:11:44;;;;;;;;;10.67;8.00;;;;;35.81;33.83;101534.84;5017712;28;45352;-68
2023/08/11 08:14:10;;;;;;;;;8.67;8.67;;;;;36.01;33.87;101553.16;5017541;28;45495;-68
2023/08/11 08:16:38;;;;;;;;;7.67;7.33;;;;;36.06;33.71;101549.53;5017585;28;45914;-68
2023/08/11 08:19:05;;;;;;;;;10.33;9.33;;;;;36.29;33.50;101554.22;5016876;28;45358;-76
2023/08/11 08:21:32;;;;;;;;;10.00;9.33;;;;;36.51;33.31;101540.63;5014400;28;45511;-69
2023/08/11 08:23:58;;;;;;;;;7.67;7.00;;;;;36.63;32.91;101533.81;5017563;28;45210;-69
2023/08/11 08:26:23;;;;;;;;;8.67;8.67;;;;;36.97;32.77;101548.28;5016961;28;46752;-69
2023/08/11 08:28:48;;;;;;;;;13.67;12.67;;;;;37.05;31.68;101532.91;5016873;28;45213;-69
2023/08/11 08:31:14;;;;;;;;;12.00;11.00;;;;;37.15;32.32;101533.56;5016798;28;45336;-69
2023/08/11 08:33:39;;;;;;;;;8.33;8.00;;;;;36.85;32.33;101482.25;4999737;28;45478;-70
2023/08/11 08:36:04;;;;;;;;;10.33;10.33;;;;;37.11;32.16;101526.97;4998607;28;64134;-70
2023/08/11 08:38:30;;;;;;;;;8.00;8.00;;;;;37.32;31.64;101537.75;5017217;28;45459;-68
2023/08/11 08:40:56;;;;;;;;;10.33;10.33;;;;;37.24;32.08;101513.44;5017403;28;45432;-68
2023/08/11 08:43:21;;;;;;;;;8.00;8.00;;;;;37.45;31.09;101532.22;5017867;28;45411;-69
2023/08/11 08:45:49;;;;;;;;;9.00;8.00;;;;;37.52;31.44;101531.81;5016534;28;45485;-68
2023/08/11 08:48:22;;;;;;;;;8.00;8.00;;;;;37.71;30.42;101546.44;5017266;28;45352;-67
2023/08/11 08:50:47;;;;;;;;;8.00;8.00;;;;;37.70;30.68;101530.09;5016716;28;45488;-69
2023/08/11 08:53:12;;;;;;;;;11.00;11.00;;;;;37.88;30.14;101539.47;5017548;28;45313;-69
2023/08/11 08:55:38;;;;;;;;;11.33;10.00;;;;;37.96;30.50;101535.97;5016633;28;45760;-69
2023/08/11 08:58:04;;;;;;;;;15.00;13.00;;;;;38.09;30.37;101532.38;5016890;28;45468;-67
2023/08/11 09:00:30;;;;;;;;;10.33;9.67;;;;;38.35;30.00;101541.81;5016573;28;45426;-68
2023/08/11 09:02:57;;;;;;;;;8.00;8.00;;;;;38.26;30.15;101542.88;5017427;28;45288;-68
2023/08/11 09:05:24;;;;;;;;;9.67;9.67;;;;;38.19;29.39;101498.84;5016326;28;47082;-69
2023/08/11 09:07:49;;;;;;;;;7.67;7.67;;;;;38.74;29.56;101545.13;5017067;28;45479;-68
2023/08/11 09:10:16;;;;;;;;;10.33;10.33;;;;;38.91;28.98;101545.28;5016703;28;45304;-69
2023/08/11 09:12:44;;;;;;;;;8.33;7.67;;;;;39.01;28.43;101535.84;5017199;28;45357;-69
2023/08/11 09:15:11;;;;;;;;;9.00;8.67;;;;;39.21;28.49;101538.13;5015686;28;46760;-69
2023/08/11 09:17:38;;;;;;;;;8.00;8.00;;;;;39.58;27.85;101536.06;5016011;28;45455;-69
2023/08/11 09:20:04;;;;;;;;;10.67;10.00;;;;;39.96;27.35;101541.97;5017010;28;45361;-69
2023/08/11 09:22:32;;;;;;;;;9.67;8.33;;;;;40.11;26.84;101530.38;5017016;28;45539;-69
2023/08/11 09:24:58;;;;;;;;;8.33;7.33;;;;;40.26;26.84;101538.28;5016124;28;45419;-69
2023/08/11 09:27:23;;;;;;;;;7.67;6.67;;;;;40.82;26.68;101546.88;5016437;28;45411;-69
2023/08/11 09:29:49;;;;;;;;;8.00;8.00;;;;;41.21;26.08;101541.06;5016505;28;45468;-68
2023/08/11 09:32:15;;;;;;;;;8.00;8.00;;;;;41.60;24.85;101559.53;5014866;28;45436;-69
2023/08/11 09:34:43;;;;;;;;;9.67;9.00;;;;;41.86;24.74;101553.06;5016338;28;45544;-71
2023/08/11 09:37:09;;;;;;;;;9.33;8.33;;;;;42.48;24.66;101564.38;4998695;28;45475;-69
2023/08/11 09:39:36;;;;;;;;;7.00;7.00;;;;;42.87;23.79;101527.84;5016530;28;45482;-69
2023/08/11 09:42:01;;;;;;;;;6.67;6.67;;;;;43.44;23.07;101563.50;5016760;28;45510;-69
2023/08/11 09:44:26;;;;;;;;;5.00;5.00;;;;;44.09;22.17;101531.72;5014560;28;46015;-68
2023/08/11 09:46:52;;;;;;;;;7.67;7.67;;;;;44.96;21.55;101566.78;5016375;28;45482;-70
2023/08/11 09:49:17;;;;;;;;;7.33;7.00;;;;;45.31;20.40;101566.97;5016429;28;45740;-69
2023/08/11 09:51:44;;;;;;;;;7.33;7.33;;;;;45.51;21.14;101567.88;4998864;28;45364;-69
2023/08/11 09:54:10;;;;;;;;;9.67;8.67;;;;;45.25;20.78;101521.47;5016272;28;46659;-69
2023/08/11 09:56:38;;;;;;;;;8.67;8.67;;;;;45.15;20.98;101530.41;5016190;28;45269;-69
2023/08/11 09:59:06;;;;;;;;;2.67;1.67;;;;;45.29;20.11;101572.94;5015749;28;45254;-69
2023/08/11 10:01:36;;;;;;;;;6.00;6.00;;;;;45.10;21.04;101569.97;5015852;28;45463;-70
2023/08/11 10:04:07;;;;;;;;;6.00;6.00;;;;;45.08;21.15;101575.16;5016008;28;47056;-70
2023/08/11 10:06:36;;;;;;;;;5.00;5.00;;;;;44.65;21.33;101576.66;5015809;28;45443;-70
2023/08/11 10:09:03;;;;;;;;;5.00;5.00;;;;;43.53;21.66;101489.44;5015620;28;45167;-69
2023/08/11 10:11:32;;;;;;;;;5.67;5.67;;;;;43.10;22.08;101579.50;5016297;28;45613;-69
2023/08/11 10:14:01;;;;;;;;;6.00;6.00;;;;;42.45;23.35;101576.22;5015590;28;46259;-69
2023/08/11 10:16:27;;;;;;;;;5.67;5.67;;;;;41.73;24.42;101566.06;5015782;28;45502;-69
2023/08/11 10:18:55;;;;;;;;;6.00;6.00;;;;;41.14;24.93;101565.88;4998532;28;45368;-69
2023/08/11 10:21:20;;;;;;;;;8.00;8.00;;;;;40.48;25.66;101565.22;5016107;28;45239;-70
2023/08/11 10:23:47;;;;;;;;;8.33;7.00;;;;;39.96;26.86;101553.09;5016102;28;46419;-68
2023/08/11 10:26:12;;;;;;;;;5.33;5.33;;;;;39.32;26.67;101538.69;5015611;28;45386;-69
2023/08/11 10:28:38;;;;;;;;;7.33;6.33;;;;;38.85;27.48;101543.75;5016030;28;45380;-70
2023/08/11 10:31:04;;;;;;;;;5.67;4.00;;;;;38.21;28.96;101552.13;5015912;28;45747;-69
2023/08/11 10:33:31;;;;;;;;;7.00;7.00;;;;;37.66;29.46;101543.75;5015684;28;45716;-68
2023/08/11 10:35:58;;;;;;;;;8.33;7.33;;;;;37.14;30.07;101536.63;5015620;28;45282;-70
2023/08/11 10:38:32;;;;;;;;;7.00;6.00;;;;;36.71;30.76;101552.53;5015953;28;45242;-68
2023/08/11 10:41:03;;;;;;;;;8.00;8.00;;;;;35.97;31.47;101513.38;5016097;28;45332;-69
2023/08/11 10:43:45;;;;;;;;;6.67;6.67;;;;;35.60;31.66;101538.94;5015631;28;45939;-69
2023/08/11 10:46:22;;;;;;;;;4.67;4.67;;;;;35.08;32.79;101529.47;5015296;28;45395;-69
2023/08/11 10:48:49;;;;;;;;;7.00;6.00;;;;;34.70;33.91;101548.50;5015838;28;45391;-69
2023/08/11 10:51:34;;;;;;;;;6.67;6.67;;;;;34.35;34.77;101548.69;5016153;28;45447;-69
2023/08/11 10:54:06;;;;;;;;;10.33;8.33;;;;;33.90;35.47;101558.78;5016106;28;46569;-69
2023/08/11 10:56:39;;;;;;;;;5.67;5.67;;;;;33.60;35.80;101553.31;5018606;28;45548;-69
2023/08/11 10:59:05;;;;;;;;;6.00;6.00;;;;;33.28;35.64;101555.25;5018881;28;45238;-69
2023/08/11 11:01:34;;;;;;;;;7.67;6.33;;;;;32.95;36.34;101537.31;5018879;28;45747;-69
2023/08/11 11:04:00;;;;;;;;;11.33;8.00;;;;;32.66;36.84;101512.22;5001216;28;46791;-68
2023/08/11 11:06:26;;;;;;;;;8.67;7.00;;;;;32.77;36.83;101554.34;5018564;28;45727;-69
2023/08/11 11:08:51;;;;;;;;;7.00;7.00;;;;;32.64;37.36;101558.47;5019213;28;45349;-69
2023/08/11 11:11:17;;;;;;;;;8.67;6.67;;;;;32.50;38.00;101556.50;5017365;28;45412;-68
2023/08/11 11:13:42;;;;;;;;;8.33;7.33;;;;;32.42;37.98;101535.81;5018405;28;48128;-70
2023/08/11 11:16:07;;;;;;;;;4.67;4.67;;;;;32.42;37.97;101540.47;5018380;28;45500;-69